createdAt,value
2022-10-28T00:00:44.455Z,89.20
2022-10-28T00:05:04.132Z,88.92
2022-10-28T00:09:08.342Z,88.68
2022-10-28T00:13:13.357Z,88.75
2022-10-28T00:17:15.047Z,88.98
2022-10-28T00:21:18.132Z,89.13
2022-10-28T00:25:24.347Z,89.06
2022-10-28T00:29:25.998Z,88.91
2022-10-28T00:33:27.674Z,88.99
2022-10-28T00:37:29.456Z,88.82
2022-10-28T00:41:32.982Z,88.95
2022-10-28T00:45:34.700Z,89.14
2022-10-28T00:49:36.368Z,89.23
2022-10-28T00:53:39.539Z,89.37
2022-10-28T00:57:41.992Z,89.30
2022-10-28T01:01:44.256Z,89.03
2022-10-28T01:05:47.273Z,89.29
2022-10-28T01:09:49.862Z,89.76
2022-10-28T01:14:10.162Z,89.55
2022-10-28T01:18:22.195Z,89.33
2022-10-28T01:26:53.089Z,89.66
2022-10-28T01:31:13.638Z,89.64
2022-10-28T01:35:25.389Z,89.51
2022-10-28T01:39:27.059Z,90.02
2022-10-28T01:43:32.940Z,89.65
2022-10-28T01:47:38.354Z,89.87
2022-10-28T01:51:48.744Z,90.38
2022-10-28T01:55:52.566Z,90.73
2022-10-28T01:59:54.429Z,90.80
2022-10-28T02:03:56.578Z,90.51
2022-10-28T02:08:01.255Z,90.53
2022-10-28T02:12:05.732Z,90.22
2022-10-28T02:16:31.581Z,90.06
2022-10-28T02:20:33.287Z,89.68
2022-10-28T02:24:57.895Z,90.10
2022-10-28T02:29:19.407Z,90.20
2022-10-28T02:33:23.363Z,90.25
2022-10-28T02:37:29.553Z,90.15
2022-10-28T02:41:34.862Z,90.13
2022-10-28T02:45:44.525Z,90.29
2022-10-28T02:49:49.663Z,90.44
2022-10-28T02:53:51.387Z,90.30
2022-10-28T02:57:53.507Z,89.95
2022-10-28T03:01:55.747Z,89.78
2022-10-28T03:05:57.545Z,89.86
2022-10-28T03:09:59.219Z,90.18
2022-10-28T03:14:00.924Z,90.89
2022-10-28T03:18:02.702Z,90.98
2022-10-28T03:22:04.376Z,90.77
2022-10-28T03:26:06.052Z,90.53
2022-10-28T03:30:08.287Z,90.67
2022-10-28T03:34:10.033Z,90.54
2022-10-28T03:38:11.738Z,90.63
2022-10-28T03:42:13.438Z,90.67
2022-10-28T03:46:15.091Z,90.54
2022-10-28T03:50:17.232Z,90.28
2022-10-28T03:54:18.936Z,90.11
2022-10-28T03:58:21.281Z,90.28
2022-10-28T04:02:23.185Z,90.27
2022-10-28T04:06:25.059Z,90.11
2022-10-28T04:10:26.745Z,90.22
2022-10-28T04:14:28.423Z,90.11
2022-10-28T04:18:30.139Z,89.84
2022-10-28T04:22:32.016Z,90.14
2022-10-28T04:26:33.768Z,90.73
2022-10-28T04:30:35.541Z,90.97
2022-10-28T04:34:37.381Z,90.41
2022-10-28T04:38:39.132Z,89.65
2022-10-28T04:42:40.823Z,89.71
2022-10-28T04:46:42.553Z,90.40
2022-10-28T04:50:45.395Z,91.09
2022-10-28T04:54:47.098Z,91.20
2022-10-28T04:58:48.793Z,91.13
2022-10-28T05:02:51.099Z,91.74
2022-10-28T05:06:52.775Z,91.53
2022-10-28T05:10:54.503Z,91.30
2022-10-28T05:14:56.236Z,91.12
2022-10-28T05:18:58.158Z,90.90
2022-10-28T05:23:00.033Z,90.96
2022-10-28T05:27:01.743Z,91.66
2022-10-28T05:31:03.506Z,91.57
2022-10-28T05:35:06.252Z,91.67
2022-10-28T05:39:08.631Z,91.59
2022-10-28T05:43:10.395Z,91.81
2022-10-28T05:47:12.221Z,91.96
2022-10-28T05:51:14.087Z,91.80
2022-10-28T05:55:19.014Z,91.88
2022-10-28T05:59:20.843Z,91.70
2022-10-28T06:03:24.994Z,91.51
2022-10-28T06:07:30.569Z,92.09
2022-10-28T06:11:30.860Z,92.39
2022-10-28T06:15:32.542Z,91.83
2022-10-28T06:19:34.204Z,91.86
2022-10-28T06:23:35.872Z,91.85
2022-10-28T06:27:37.625Z,92.01
2022-10-28T06:31:40.062Z,91.96
2022-10-28T06:35:41.947Z,92.24
2022-10-28T06:39:43.836Z,93.12
2022-10-28T06:43:45.953Z,93.29
2022-10-28T06:47:49.285Z,92.91
2022-10-28T06:51:50.997Z,93.05
2022-10-28T06:55:53.464Z,92.94
2022-10-28T06:59:55.382Z,92.91
2022-10-28T07:03:57.517Z,92.94
2022-10-28T07:07:59.264Z,93.13
2022-10-28T07:12:04.933Z,93.27
2022-10-28T07:16:07.369Z,93.62
2022-10-28T07:20:09.486Z,93.69
2022-10-28T07:24:11.210Z,93.89
2022-10-28T07:28:12.943Z,93.88
2022-10-28T07:32:15.233Z,94.18
2022-10-28T07:36:17.000Z,94.74
2022-10-28T07:40:20.315Z,95.47
2022-10-28T07:44:22.089Z,96.11
2022-10-28T07:48:23.955Z,96.23
2022-10-28T07:52:25.752Z,96.10
2022-10-28T07:56:27.631Z,95.88
2022-10-28T08:00:29.391Z,95.88
2022-10-28T08:04:31.520Z,95.85
2022-10-28T08:08:33.481Z,95.74
2022-10-28T08:12:35.186Z,95.34
2022-10-28T08:16:36.873Z,94.86
2022-10-28T08:20:38.546Z,94.76
2022-10-28T08:24:40.245Z,94.53
2022-10-28T08:28:42.493Z,94.65
2022-10-28T08:32:44.450Z,94.48
2022-10-28T08:36:46.315Z,94.43
2022-10-28T08:40:50.950Z,94.69
2022-10-28T08:45:16.172Z,94.27
2022-10-28T08:49:20.548Z,94.39
2022-10-28T08:53:32.308Z,94.74
2022-10-28T08:57:37.474Z,94.71
2022-10-28T09:01:46.973Z,94.59
2022-10-28T09:05:53.658Z,94.23
2022-10-28T09:10:14.495Z,94.15
2022-10-28T09:14:26.316Z,94.13
2022-10-28T09:18:47.026Z,93.84
2022-10-28T09:22:55.121Z,93.53
2022-10-28T09:27:15.456Z,93.33
2022-10-28T09:31:44.246Z,92.97
2022-10-28T09:35:46.949Z,92.76
2022-10-28T09:39:50.969Z,92.52
2022-10-28T09:44:06.511Z,92.67
2022-10-28T09:48:28.953Z,92.54
2022-10-28T09:52:35.530Z,92.45
2022-10-28T09:56:56.194Z,92.12
2022-10-28T10:00:58.471Z,92.39
2022-10-28T10:05:01.590Z,92.59
2022-10-28T10:09:03.560Z,92.61
2022-10-28T10:13:06.533Z,92.11
2022-10-28T10:17:30.376Z,92.02
2022-10-28T10:21:51.833Z,92.10
2022-10-28T10:26:01.411Z,92.54
2022-10-28T10:30:03.515Z,92.43
2022-10-28T10:34:05.530Z,91.89
2022-10-28T10:38:07.410Z,91.26
2022-10-28T10:42:16.289Z,91.06
2022-10-28T10:46:18.135Z,90.75
2022-10-28T10:50:20.611Z,90.23
2022-10-28T10:54:23.272Z,90.28
2022-10-28T10:58:27.415Z,90.43
2022-10-28T11:02:29.204Z,90.22
2022-10-28T11:06:53.857Z,90.24
2022-10-28T11:11:12.907Z,89.99
2022-10-28T11:15:17.509Z,89.91
2022-10-28T11:19:24.137Z,89.53
2022-10-28T11:23:31.905Z,89.71
2022-10-28T11:27:55.458Z,89.28
2022-10-28T11:32:10.458Z,89.15
2022-10-28T11:36:17.953Z,88.98
2022-10-28T11:40:19.687Z,88.70
2022-10-28T11:44:30.547Z,88.76
2022-10-28T11:49:09.519Z,88.56
2022-10-28T11:53:23.893Z,88.51
2022-10-28T11:57:31.907Z,88.14
2022-10-28T12:01:42.626Z,88.09
2022-10-28T12:05:49.374Z,88.09
2022-10-28T12:10:10.866Z,87.93
2022-10-28T12:14:22.335Z,87.67
2022-10-28T12:18:24.346Z,87.46
2022-10-28T12:22:48.023Z,87.41
2022-10-28T12:26:57.386Z,87.47
2022-10-28T12:31:41.903Z,87.33
2022-10-28T12:35:48.260Z,86.87
2022-10-28T12:39:58.938Z,86.92
2022-10-28T12:44:00.684Z,86.86
2022-10-28T12:48:21.012Z,86.77
2022-10-28T12:52:25.529Z,86.77
2022-10-28T12:56:52.340Z,86.52
2022-10-28T13:00:57.040Z,86.24
2022-10-28T13:05:27.200Z,85.94
2022-10-28T13:10:05.283Z,85.75
2022-10-28T13:14:07.110Z,85.57
2022-10-28T13:18:38.129Z,85.47
2022-10-28T13:23:13.643Z,85.26
2022-10-28T13:27:15.773Z,85.40
2022-10-28T13:31:18.191Z,85.21
2022-10-28T13:35:24.826Z,85.28
2022-10-28T13:39:31.146Z,85.00
2022-10-28T13:43:48.400Z,85.06
2022-10-28T13:47:50.179Z,85.03
2022-10-28T13:54:24.881Z,85.01
2022-10-28T13:58:28.355Z,84.92
2022-10-28T14:02:46.693Z,85.00
2022-10-28T14:06:50.583Z,84.86
2022-10-28T14:11:13.950Z,84.81
2022-10-28T14:15:26.925Z,84.86
2022-10-28T14:19:30.387Z,84.74
2022-10-28T14:24:10.914Z,84.65
2022-10-28T14:28:34.517Z,84.78
2022-10-28T14:32:43.782Z,84.80
2022-10-28T14:37:32.107Z,84.72
2022-10-28T14:41:44.569Z,84.64
2022-10-28T14:46:00.092Z,84.72
2022-10-28T14:50:23.750Z,85.02
2022-10-28T14:54:44.076Z,85.39
2022-10-28T14:58:47.508Z,85.49
2022-10-28T15:02:51.079Z,84.95
2022-10-28T15:06:54.618Z,85.13
2022-10-28T15:11:19.075Z,85.65
2022-10-28T15:15:25.048Z,85.73
2022-10-28T15:19:52.611Z,85.93
2022-10-28T15:24:01.056Z,85.61
2022-10-28T15:28:04.339Z,85.39
2022-10-28T15:32:16.497Z,85.31
2022-10-28T15:36:24.037Z,85.37
2022-10-28T15:40:28.278Z,85.80
2022-10-28T15:44:36.012Z,85.75
2022-10-28T15:48:59.023Z,86.35
2022-10-28T15:53:34.413Z,86.18
2022-10-28T15:57:52.842Z,86.31
2022-10-28T16:01:59.600Z,86.43
2022-10-28T16:06:04.325Z,86.66
2022-10-28T16:10:15.710Z,86.62
2022-10-28T16:14:35.027Z,86.61
2022-10-28T16:19:06.456Z,86.97
2022-10-28T16:23:22.024Z,87.22
2022-10-28T16:27:28.551Z,87.61
2022-10-28T16:31:32.257Z,88.02
2022-10-28T16:35:53.133Z,88.38
2022-10-28T16:39:58.050Z,88.19
2022-10-28T16:44:01.660Z,88.28
2022-10-28T16:48:09.542Z,88.36
2022-10-28T16:52:20.547Z,88.29
2022-10-28T16:56:24.304Z,88.36
2022-10-28T17:00:28.007Z,88.56
2022-10-28T17:04:31.804Z,88.51
2022-10-28T17:09:04.228Z,88.57
2022-10-28T17:12:58.750Z,88.44
2022-10-28T17:17:02.333Z,88.59
2022-10-28T17:21:06.054Z,88.47
2022-10-28T17:25:11.270Z,88.43
2022-10-28T17:29:32.322Z,88.92
2022-10-28T17:33:36.882Z,89.41
2022-10-28T17:37:40.939Z,89.50
2022-10-28T17:41:44.602Z,89.64
2022-10-28T17:45:47.895Z,89.66
2022-10-28T17:50:08.460Z,89.80
2022-10-28T17:54:11.975Z,89.77
2022-10-28T17:58:15.276Z,89.97
2022-10-28T18:02:36.153Z,89.98
2022-10-28T18:06:39.386Z,89.84
2022-10-28T18:10:53.776Z,89.84
2022-10-28T18:14:57.026Z,89.78
2022-10-28T18:19:17.916Z,89.83
2022-10-28T18:23:22.384Z,89.93
2022-10-28T18:27:25.622Z,90.19
2022-10-28T18:31:47.455Z,90.36
2022-10-28T18:35:50.723Z,90.52
2022-10-28T18:40:11.887Z,90.14
2022-10-28T18:44:32.580Z,90.17
2022-10-28T18:48:36.016Z,90.17
2022-10-28T18:52:39.245Z,90.55
2022-10-28T18:56:46.230Z,90.45
2022-10-28T19:01:14.918Z,89.94
2022-10-28T19:05:18.739Z,89.95
2022-10-28T19:09:22.076Z,89.21
2022-10-28T19:13:25.462Z,88.99
2022-10-28T19:17:28.682Z,88.53
2022-10-28T19:21:51.292Z,88.83
2022-10-28T19:25:56.290Z,89.00
2022-10-28T19:30:00.984Z,88.79
2022-10-28T19:34:04.421Z,89.47
2022-10-28T19:38:07.609Z,89.78
2022-10-28T19:42:28.336Z,90.14
2022-10-28T19:46:34.684Z,90.34
2022-10-28T19:50:37.853Z,90.76
2022-10-28T19:54:41.055Z,91.09
2022-10-28T19:58:49.523Z,91.04
2022-10-28T20:02:52.656Z,91.08
2022-10-28T20:06:58.470Z,91.23
2022-10-28T20:11:25.800Z,91.09
2022-10-28T20:15:30.211Z,91.03
2022-10-28T20:19:33.669Z,91.47
2022-10-28T20:23:37.536Z,91.69
2022-10-28T20:27:40.786Z,91.94
2022-10-28T20:31:44.003Z,92.24
2022-10-28T20:35:47.249Z,92.46
2022-10-28T20:39:53.685Z,92.58
2022-10-28T20:44:00.464Z,92.76
2022-10-28T20:48:03.951Z,92.86
2022-10-28T20:52:07.140Z,92.90
2022-10-28T20:56:30.610Z,92.81
2022-10-28T21:00:33.799Z,92.57
2022-10-28T21:04:37.671Z,92.26
2022-10-28T21:08:41.099Z,92.26
2022-10-28T21:12:44.294Z,91.63
2022-10-28T21:16:51.501Z,91.10
2022-10-28T21:20:59.171Z,91.03
2022-10-28T21:25:03.775Z,91.43
2022-10-28T21:29:07.054Z,91.47
2022-10-28T21:33:11.896Z,91.32
2022-10-28T21:37:33.905Z,91.24
2022-10-28T21:41:54.657Z,91.37
2022-10-28T21:45:58.337Z,91.62
2022-10-28T21:50:01.556Z,91.38
2022-10-28T21:54:05.165Z,91.14
2022-10-28T21:58:08.318Z,91.18
2022-10-28T22:02:29.213Z,91.40
2022-10-28T22:06:32.489Z,91.62
2022-10-28T22:10:35.819Z,91.94
2022-10-28T22:14:39.340Z,91.78
2022-10-28T22:19:01.823Z,91.57
2022-10-28T22:23:05.015Z,91.00
2022-10-28T22:27:08.208Z,90.59
2022-10-28T22:31:14.735Z,91.02
2022-10-28T22:35:17.902Z,91.23
2022-10-28T22:39:21.126Z,91.63
2022-10-28T22:43:24.325Z,92.14
2022-10-28T22:47:27.547Z,92.56
2022-10-28T22:51:30.934Z,92.60
2022-10-28T22:55:34.120Z,92.74
2022-10-28T22:59:54.776Z,92.77
2022-10-28T23:04:15.891Z,92.74
2022-10-28T23:08:19.126Z,92.78
2022-10-28T23:12:22.268Z,92.83
2022-10-28T23:16:42.968Z,93.00
2022-10-28T23:20:46.315Z,92.96
2022-10-28T23:24:49.499Z,93.13
2022-10-28T23:28:54.979Z,93.09
2022-10-28T23:33:15.810Z,93.03
2022-10-28T23:37:18.996Z,92.99
2022-10-28T23:41:39.542Z,92.86
2022-10-28T23:45:42.691Z,92.66
2022-10-28T23:49:45.948Z,92.57
2022-10-28T23:54:06.485Z,92.52
2022-10-28T23:58:09.696Z,92.43
